createdAt,value
2018-06-14T00:02:27.983Z,100421.00
2018-06-14T00:04:57.624Z,100423.48
2018-06-14T00:07:27.196Z,100424.59
2018-06-14T00:09:56.641Z,100419.94
2018-06-14T00:12:26.183Z,100419.26
2018-06-14T00:14:55.769Z,100423.84
2018-06-14T00:17:25.550Z,100424.88
2018-06-14T00:19:55.103Z,100428.75
2018-06-14T00:22:24.804Z,100432.67
2018-06-14T00:24:54.425Z,100431.02
2018-06-14T00:27:24.007Z,100437.17
2018-06-14T00:29:53.608Z,100428.05
2018-06-14T00:32:23.644Z,100426.48
2018-06-14T00:34:53.382Z,100424.70
2018-06-14T00:37:23.074Z,100424.47
2018-06-14T00:39:52.663Z,100422.55
2018-06-14T00:42:22.269Z,100428.11
2018-06-14T00:44:51.857Z,100428.64
2018-06-14T00:47:21.554Z,100423.36
2018-06-14T00:49:51.128Z,100432.91
2018-06-14T00:52:20.806Z,100431.92
2018-06-14T00:54:50.345Z,100428.59
2018-06-14T00:57:30.501Z,100430.77
2018-06-14T01:00:00.151Z,100431.77
2018-06-14T01:02:29.814Z,100431.82
2018-06-14T01:04:59.430Z,100431.13
2018-06-14T01:07:29.088Z,100428.24
2018-06-14T01:09:58.713Z,100428.52
2018-06-14T01:12:28.355Z,100430.22
2018-06-14T01:14:57.964Z,100432.41
2018-06-14T01:17:27.715Z,100430.37
2018-06-14T01:19:57.277Z,100428.80
2018-06-14T01:22:26.905Z,100429.38
2018-06-14T01:24:56.479Z,100427.37
2018-06-14T01:27:26.097Z,100433.73
2018-06-14T01:29:55.746Z,100431.00
2018-06-14T01:32:25.400Z,100429.68
2018-06-14T01:34:54.971Z,100428.34
2018-06-14T01:37:41.320Z,100430.78
2018-06-14T01:40:10.988Z,100433.44
2018-06-14T01:42:40.697Z,100427.94
2018-06-14T01:45:10.258Z,100432.05
2018-06-14T01:47:39.877Z,100424.98
2018-06-14T01:50:09.500Z,100419.44
2018-06-14T01:52:39.135Z,100424.19
2018-06-14T01:55:08.773Z,100425.93
2018-06-14T01:57:38.379Z,100432.29
2018-06-14T02:00:08.023Z,100430.55
2018-06-14T02:02:37.599Z,100433.73
2018-06-14T02:05:07.236Z,100434.25
2018-06-14T02:07:36.864Z,100433.36
2018-06-14T02:10:06.509Z,100431.52
2018-06-14T02:12:36.133Z,100426.34
2018-06-14T02:15:06.081Z,100433.59
2018-06-14T02:17:35.619Z,100422.16
2018-06-14T02:20:05.754Z,100432.26
2018-06-14T02:22:35.298Z,100429.00
2018-06-14T02:25:04.922Z,100430.03
2018-06-14T02:27:34.729Z,100432.29
2018-06-14T02:30:04.955Z,100435.28
2018-06-14T02:32:34.663Z,100435.80
2018-06-14T02:35:04.914Z,100435.98
2018-06-14T02:37:40.665Z,100439.09
2018-06-14T02:40:12.160Z,100435.72
2018-06-14T02:42:42.613Z,100435.96
2018-06-14T02:45:12.317Z,100435.52
2018-06-14T02:47:41.898Z,100429.81
2018-06-14T02:50:11.537Z,100430.96
2018-06-14T02:52:41.207Z,100423.36
2018-06-14T02:55:10.796Z,100432.48
2018-06-14T02:57:40.365Z,100430.83
2018-06-14T03:00:10.363Z,100429.92
2018-06-14T03:02:40.124Z,100426.04
2018-06-14T03:05:09.870Z,100436.06
2018-06-14T03:07:40.012Z,100428.92
2018-06-14T03:10:09.721Z,100432.56
2018-06-14T03:12:39.425Z,100425.61
2018-06-14T03:15:09.048Z,100433.05
2018-06-14T03:17:38.635Z,100436.23
2018-06-14T03:20:08.263Z,100438.41
2018-06-14T03:22:37.963Z,100433.49
2018-06-14T03:25:07.569Z,100429.36
2018-06-14T03:27:37.291Z,100436.83
2018-06-14T03:30:07.030Z,100433.30
2018-06-14T03:32:36.775Z,100435.22
2018-06-14T03:35:06.406Z,100428.85
2018-06-14T03:37:36.134Z,100425.44
2018-06-14T03:40:05.833Z,100421.56
2018-06-14T03:42:39.517Z,100421.86
2018-06-14T03:45:09.138Z,100421.81
2018-06-14T03:47:38.970Z,100421.19
2018-06-14T03:50:08.716Z,100432.47
2018-06-14T03:52:38.578Z,100427.41
2018-06-14T03:55:08.297Z,100418.24
2018-06-14T03:57:38.199Z,100419.91
2018-06-14T04:00:07.921Z,100420.52
2018-06-14T04:02:37.768Z,100423.37
2018-06-14T04:05:07.433Z,100423.20
2018-06-14T04:07:37.306Z,100422.42
2018-06-14T04:10:07.020Z,100421.42
2018-06-14T04:12:37.288Z,100421.64
2018-06-14T04:15:07.128Z,100418.49
2018-06-14T04:17:36.818Z,100416.80
2018-06-14T04:20:06.515Z,100414.80
2018-06-14T04:22:36.130Z,100414.50
2018-06-14T04:25:05.949Z,100413.83
2018-06-14T04:27:35.638Z,100407.50
2018-06-14T04:30:05.379Z,100414.27
2018-06-14T04:32:35.261Z,100405.83
2018-06-14T04:35:05.093Z,100407.11
2018-06-14T04:37:34.988Z,100402.99
2018-06-14T04:40:05.596Z,100406.13
2018-06-14T04:42:35.341Z,100402.89
2018-06-14T04:45:05.358Z,100384.81
2018-06-14T04:47:35.121Z,100390.44
2018-06-14T04:50:04.470Z,100388.81
2018-06-14T04:52:34.274Z,100381.11
2018-06-14T04:55:03.924Z,100385.45
2018-06-14T04:57:33.527Z,100383.96
2018-06-14T05:00:03.352Z,100382.64
2018-06-14T05:02:33.011Z,100378.59
2018-06-14T05:05:02.849Z,100378.36
2018-06-14T05:07:32.571Z,100378.59
2018-06-14T05:10:02.214Z,100378.84
2018-06-14T05:12:31.951Z,100376.76
2018-06-14T05:15:01.796Z,100379.08
2018-06-14T05:17:31.452Z,100379.81
2018-06-14T05:20:01.240Z,100373.06
2018-06-14T05:22:30.932Z,100377.82
2018-06-14T05:25:01.160Z,100382.25
2018-06-14T05:27:31.521Z,100376.31
2018-06-14T05:30:01.357Z,100381.70
2018-06-14T05:32:31.073Z,100377.17
2018-06-14T05:35:00.702Z,100374.62
2018-06-14T05:37:30.506Z,100381.98
2018-06-14T05:40:00.922Z,100382.92
2018-06-14T05:42:30.985Z,100385.39
2018-06-14T05:45:01.441Z,100385.05
2018-06-14T05:47:32.444Z,100378.91
2018-06-14T05:50:02.777Z,100377.47
2018-06-14T05:52:32.677Z,100373.96
2018-06-14T05:55:02.368Z,100370.92
2018-06-14T05:57:32.079Z,100367.77
2018-06-14T06:00:01.816Z,100375.80
2018-06-14T06:02:31.674Z,100372.51
2018-06-14T06:05:01.647Z,100368.89
2018-06-14T06:07:32.176Z,100371.52
2018-06-14T06:10:01.974Z,100374.02
2018-06-14T06:12:31.780Z,100377.20
2018-06-14T06:15:01.763Z,100374.22
2018-06-14T06:17:32.722Z,100364.58
2018-06-14T06:20:02.695Z,100370.45
2018-06-14T06:22:32.428Z,100372.00
2018-06-14T06:25:02.312Z,100373.55
2018-06-14T06:27:31.877Z,100373.52
2018-06-14T06:30:01.470Z,100375.73
2018-06-14T06:32:31.101Z,100373.09
2018-06-14T06:35:00.770Z,100374.45
2018-06-14T06:37:30.475Z,100366.39
2018-06-14T06:39:59.767Z,100361.23
2018-06-14T06:42:29.630Z,100366.34
2018-06-14T06:44:59.302Z,100363.06
2018-06-14T06:47:28.872Z,100367.73
2018-06-14T06:49:58.756Z,100366.94
2018-06-14T06:52:28.589Z,100365.08
2018-06-14T06:54:58.256Z,100365.14
2018-06-14T06:57:27.861Z,100362.67
2018-06-14T06:59:57.619Z,100363.02
2018-06-14T07:02:27.295Z,100364.19
2018-06-14T07:04:56.964Z,100363.89
2018-06-14T07:07:26.677Z,100363.22
2018-06-14T07:09:56.373Z,100363.62
2018-06-14T07:12:26.063Z,100365.54
2018-06-14T07:14:55.886Z,100366.94
2018-06-14T07:17:25.571Z,100364.42
2018-06-14T07:19:55.205Z,100365.70
2018-06-14T07:22:24.896Z,100361.22
2018-06-14T07:24:54.752Z,100357.80
2018-06-14T07:27:24.535Z,100362.52
2018-06-14T07:29:54.780Z,100354.93
2018-06-14T07:32:24.351Z,100358.19
2018-06-14T07:34:54.471Z,100357.88
2018-06-14T07:37:24.097Z,100346.42
2018-06-14T07:39:54.543Z,100342.25
2018-06-14T07:42:24.237Z,100344.45
2018-06-14T07:44:55.137Z,100336.46
2018-06-14T07:47:25.062Z,100347.07
2018-06-14T07:49:55.083Z,100340.55
2018-06-14T07:52:24.884Z,100350.16
2018-06-14T07:54:54.836Z,100345.86
2018-06-14T07:57:25.076Z,100339.97
2018-06-14T07:59:55.245Z,100341.30
2018-06-14T08:02:24.970Z,100327.94
2018-06-14T08:04:55.501Z,100326.37
2018-06-14T08:07:25.223Z,100332.08
2018-06-14T08:09:55.207Z,100339.03
2018-06-14T08:12:24.923Z,100340.35
2018-06-14T08:14:54.526Z,100338.24
2018-06-14T08:17:24.174Z,100340.20
2018-06-14T08:19:54.729Z,100338.32
2018-06-14T08:22:24.928Z,100332.41
2018-06-14T08:24:54.758Z,100335.59
2018-06-14T08:27:24.525Z,100327.27
2018-06-14T08:29:54.283Z,100326.92
2018-06-14T08:32:23.996Z,100322.59
2018-06-14T08:34:53.802Z,100328.22
2018-06-14T08:37:27.977Z,100320.84
2018-06-14T08:39:58.201Z,100326.25
2018-06-14T08:42:28.059Z,100326.51
2018-06-14T08:44:58.658Z,100320.66
2018-06-14T08:47:28.585Z,100319.69
2018-06-14T08:49:58.758Z,100310.77
2018-06-14T08:52:31.257Z,100314.13
2018-06-14T08:55:01.293Z,100312.98
2018-06-14T08:57:30.909Z,100314.57
2018-06-14T09:00:01.019Z,100310.50
2018-06-14T09:02:30.582Z,100310.31
2018-06-14T09:05:00.585Z,100309.20
2018-06-14T09:07:29.904Z,100309.39
2018-06-14T09:09:59.944Z,100311.59
2018-06-14T09:12:29.649Z,100308.30
2018-06-14T09:14:59.446Z,100301.31
2018-06-14T09:17:29.278Z,100293.70
2018-06-14T09:19:58.926Z,100301.44
2018-06-14T09:22:28.955Z,100294.27
2018-06-14T09:24:58.563Z,100288.80
2018-06-14T09:27:28.229Z,100292.14
2018-06-14T09:29:58.048Z,100289.44
2018-06-14T09:32:27.706Z,100289.55
2018-06-14T09:34:57.278Z,100289.47
2018-06-14T09:37:29.178Z,100289.70
2018-06-14T09:39:58.798Z,100286.64
2018-06-14T09:42:28.505Z,100284.34
2018-06-14T09:44:58.165Z,100288.03
2018-06-14T09:47:27.960Z,119786.55
2018-06-14T09:49:57.550Z,119786.55
2018-06-14T09:52:27.391Z,119786.55
